createdAt,value
2022-11-03T00:02:07.702Z,5.90
2022-11-03T00:04:35.184Z,5.70
2022-11-03T00:07:03.402Z,5.60
2022-11-03T00:09:32.009Z,5.50
2022-11-03T00:12:01.048Z,5.50
2022-11-03T00:14:29.037Z,5.70
2022-11-03T00:16:56.200Z,5.60
2022-11-03T00:19:23.425Z,5.40
2022-11-03T00:21:50.679Z,5.50
2022-11-03T00:24:18.804Z,5.60
2022-11-03T00:26:48.082Z,5.70
2022-11-03T00:29:16.223Z,5.60
2022-11-03T00:31:45.209Z,5.60
2022-11-03T00:34:12.343Z,5.50
2022-11-03T00:36:43.080Z,5.30
2022-11-03T00:39:12.972Z,5.40
2022-11-03T00:41:40.626Z,5.40
2022-11-03T00:44:10.778Z,5.40
2022-11-03T00:46:38.502Z,5.30
2022-11-03T00:49:06.813Z,5.20
2022-11-03T00:51:37.090Z,5.20
2022-11-03T00:54:05.924Z,5.30
2022-11-03T00:56:35.410Z,5.30
2022-11-03T00:59:03.871Z,5.30
2022-11-03T01:01:40.759Z,5.30
2022-11-03T01:04:30.496Z,5.30
2022-11-03T01:07:00.363Z,5.30
2022-11-03T01:09:34.529Z,5.50
2022-11-03T01:12:06.990Z,5.60
2022-11-03T01:14:41.897Z,5.70
2022-11-03T01:17:12.487Z,5.70
2022-11-03T01:19:39.657Z,5.80
2022-11-03T01:22:10.707Z,5.80
2022-11-03T01:24:41.690Z,5.80
2022-11-03T01:27:15.097Z,5.80
2022-11-03T01:29:43.215Z,5.80
2022-11-03T01:32:11.623Z,5.70
2022-11-03T01:34:39.865Z,5.70
2022-11-03T01:37:07.616Z,5.70
2022-11-03T01:39:34.817Z,5.80
2022-11-03T01:42:02.033Z,5.80
2022-11-03T01:44:34.117Z,5.80
2022-11-03T01:47:27.885Z,5.90
2022-11-03T01:50:11.421Z,5.70
2022-11-03T01:52:47.519Z,5.60
2022-11-03T01:55:22.701Z,5.60
2022-11-03T01:57:58.200Z,5.70
2022-11-03T02:00:25.715Z,5.60
2022-11-03T02:02:53.859Z,5.50
2022-11-03T02:05:23.482Z,5.60
2022-11-03T02:08:16.186Z,5.50
2022-11-03T02:10:46.236Z,5.50
2022-11-03T02:13:20.780Z,5.50
2022-11-03T02:15:51.165Z,5.50
2022-11-03T02:18:25.000Z,5.40
2022-11-03T02:21:13.337Z,5.40
2022-11-03T02:23:53.093Z,5.40
2022-11-03T02:26:20.760Z,5.40
2022-11-03T02:28:48.934Z,5.60
2022-11-03T02:31:35.808Z,5.50
2022-11-03T02:34:20.256Z,5.50
2022-11-03T02:36:53.478Z,5.40
2022-11-03T02:39:32.952Z,5.50
2022-11-03T02:42:03.044Z,5.50
2022-11-03T02:44:32.455Z,5.70
2022-11-03T02:47:03.645Z,5.70
2022-11-03T02:49:30.875Z,5.70
2022-11-03T02:52:02.120Z,5.70
2022-11-03T02:54:43.012Z,5.60
2022-11-03T02:57:20.737Z,5.50
2022-11-03T03:00:09.640Z,5.30
2022-11-03T03:02:47.800Z,5.20
2022-11-03T03:05:17.915Z,5.10
2022-11-03T03:07:49.499Z,5.00
2022-11-03T03:10:20.274Z,5.00
2022-11-03T03:12:53.274Z,5.00
2022-11-03T03:15:25.964Z,5.00
2022-11-03T03:18:17.175Z,4.80
2022-11-03T03:21:00.833Z,4.90
2022-11-03T03:23:34.523Z,4.80
2022-11-03T03:26:10.381Z,4.70
2022-11-03T03:29:11.779Z,4.80
2022-11-03T03:31:43.588Z,5.00
2022-11-03T03:34:31.336Z,4.90
2022-11-03T03:37:01.219Z,5.00
2022-11-03T03:39:32.647Z,5.10
2022-11-03T03:42:03.166Z,5.10
2022-11-03T03:44:32.842Z,4.90
2022-11-03T03:47:07.636Z,4.90
2022-11-03T03:49:36.840Z,5.10
2022-11-03T03:52:04.460Z,5.20
2022-11-03T03:54:31.663Z,5.20
2022-11-03T03:57:05.061Z,5.10
2022-11-03T03:59:33.785Z,5.00
2022-11-03T04:02:01.106Z,5.10
2022-11-03T04:04:28.574Z,5.20
2022-11-03T04:07:15.120Z,5.40
2022-11-03T04:09:43.382Z,5.50
2022-11-03T04:12:28.943Z,5.30
2022-11-03T04:15:16.700Z,5.40
2022-11-03T04:18:05.834Z,5.40
2022-11-03T04:20:54.280Z,5.40
2022-11-03T04:23:22.458Z,5.20
2022-11-03T04:25:54.162Z,5.20
2022-11-03T04:28:25.693Z,5.10
2022-11-03T04:30:58.729Z,5.10
2022-11-03T04:33:27.113Z,5.20
2022-11-03T04:35:58.607Z,5.30
2022-11-03T04:38:28.938Z,5.20
2022-11-03T04:40:58.758Z,5.20
2022-11-03T04:43:34.590Z,5.20
2022-11-03T04:46:03.398Z,5.20
2022-11-03T04:48:33.810Z,5.10
2022-11-03T04:51:15.598Z,4.90
2022-11-03T04:54:02.543Z,4.70
2022-11-03T04:56:30.376Z,4.60
2022-11-03T04:58:59.071Z,4.50
2022-11-03T05:01:27.953Z,4.60
2022-11-03T05:03:55.940Z,4.60
2022-11-03T05:06:30.708Z,4.70
2022-11-03T05:09:06.038Z,4.80
2022-11-03T05:11:44.180Z,4.90
2022-11-03T05:14:19.330Z,5.00
2022-11-03T05:16:48.669Z,5.00
2022-11-03T05:19:28.713Z,5.00
2022-11-03T05:21:59.345Z,5.00
2022-11-03T05:24:27.851Z,5.10
2022-11-03T05:26:58.251Z,5.20
2022-11-03T05:29:38.927Z,5.20
2022-11-03T05:32:17.079Z,5.20
2022-11-03T05:34:47.463Z,5.30
2022-11-03T05:37:29.065Z,5.30
2022-11-03T05:40:00.170Z,5.40
2022-11-03T05:42:53.238Z,5.40
2022-11-03T05:45:24.649Z,5.50
2022-11-03T05:47:55.567Z,5.40
2022-11-03T05:50:26.173Z,5.40
2022-11-03T05:53:22.074Z,5.50
2022-11-03T05:55:49.453Z,5.50
2022-11-03T05:58:46.793Z,5.60
2022-11-03T06:01:20.135Z,5.60
2022-11-03T06:03:47.991Z,5.70
2022-11-03T06:06:36.660Z,5.70
2022-11-03T06:09:16.570Z,5.70
2022-11-03T06:11:44.680Z,5.70
2022-11-03T06:14:16.539Z,5.70
2022-11-03T06:16:50.048Z,5.80
2022-11-03T06:19:31.803Z,5.90
2022-11-03T06:22:06.044Z,5.90
2022-11-03T06:24:34.985Z,6.00
2022-11-03T06:27:03.199Z,6.20
2022-11-03T06:29:33.647Z,6.10
2022-11-03T06:32:02.055Z,6.30
2022-11-03T06:34:33.744Z,6.30
2022-11-03T06:37:13.742Z,6.50
2022-11-03T06:39:41.481Z,6.60
2022-11-03T06:42:13.436Z,6.70
2022-11-03T06:44:52.189Z,6.80
2022-11-03T06:47:28.114Z,6.90
2022-11-03T06:49:58.528Z,6.90
2022-11-03T06:52:33.987Z,6.90
2022-11-03T06:55:16.986Z,7.00
2022-11-03T06:57:47.780Z,7.10
2022-11-03T07:00:35.558Z,7.00
2022-11-03T07:03:13.403Z,7.10
2022-11-03T07:05:42.295Z,7.10
2022-11-03T07:08:30.277Z,7.30
2022-11-03T07:11:16.244Z,7.30
2022-11-03T07:13:44.449Z,7.40
2022-11-03T07:16:22.628Z,7.50
2022-11-03T07:18:49.944Z,7.60
2022-11-03T07:21:38.222Z,7.70
2022-11-03T07:24:34.093Z,7.90
2022-11-03T07:27:23.984Z,7.90
2022-11-03T07:30:06.222Z,7.80
2022-11-03T07:32:35.093Z,8.00
2022-11-03T07:35:21.873Z,8.00
2022-11-03T07:37:52.103Z,8.20
2022-11-03T07:40:26.073Z,8.20
2022-11-03T07:43:01.284Z,8.40
2022-11-03T07:45:41.802Z,8.60
2022-11-03T07:48:17.795Z,8.60
2022-11-03T07:50:45.166Z,8.60
2022-11-03T07:53:35.166Z,8.80
2022-11-03T07:56:04.341Z,8.90
2022-11-03T07:58:35.157Z,9.10
2022-11-03T08:01:24.754Z,9.30
2022-11-03T08:04:05.954Z,9.50
2022-11-03T08:06:34.768Z,9.60
2022-11-03T08:09:02.095Z,9.70
2022-11-03T08:11:30.028Z,9.80
2022-11-03T08:13:57.758Z,10.00
2022-11-03T08:16:25.010Z,10.20
2022-11-03T08:18:52.229Z,10.40
2022-11-03T08:21:19.508Z,10.50
2022-11-03T08:23:52.570Z,10.60
2022-11-03T08:26:20.279Z,10.80
2022-11-03T08:28:47.661Z,10.50
2022-11-03T08:31:14.933Z,10.30
2022-11-03T08:33:42.161Z,10.30
2022-11-03T08:36:09.871Z,10.30
2022-11-03T08:38:37.729Z,10.40
2022-11-03T08:41:05.462Z,10.50
2022-11-03T08:43:32.560Z,10.60
2022-11-03T08:46:09.692Z,10.60
2022-11-03T08:48:40.494Z,10.80
2022-11-03T08:51:10.407Z,10.90
2022-11-03T08:53:38.645Z,11.00
2022-11-03T08:56:10.376Z,11.20
2022-11-03T08:58:40.892Z,11.40
2022-11-03T09:01:09.020Z,11.50
2022-11-03T09:03:36.346Z,11.60
2022-11-03T09:06:03.575Z,11.70
2022-11-03T09:11:17.924Z,11.90
2022-11-03T09:13:45.046Z,11.90
2022-11-03T09:16:12.314Z,12.20
2022-11-03T09:18:40.359Z,12.40
2022-11-03T09:21:09.042Z,12.50
2022-11-03T09:23:36.288Z,12.50
2022-11-03T09:26:03.463Z,12.50
2022-11-03T09:28:31.591Z,12.70
2022-11-03T09:30:58.830Z,12.70
2022-11-03T09:33:25.950Z,12.90
2022-11-03T09:35:53.070Z,13.00
2022-11-03T09:38:20.168Z,13.20
2022-11-03T09:43:20.210Z,13.40
2022-11-03T09:45:47.541Z,13.50
2022-11-03T09:48:14.983Z,13.40
2022-11-03T09:50:42.372Z,13.60
2022-11-03T09:53:12.443Z,13.60
2022-11-03T09:55:40.441Z,13.70
2022-11-03T09:58:16.218Z,13.70
2022-11-03T10:00:45.371Z,13.70
2022-11-03T10:03:18.206Z,13.90
2022-11-03T10:05:46.203Z,14.10
2022-11-03T10:08:30.495Z,14.20
2022-11-03T10:10:58.998Z,14.40
2022-11-03T10:13:41.307Z,14.40
2022-11-03T10:16:11.929Z,14.60
2022-11-03T10:18:39.230Z,14.30
2022-11-03T10:21:15.964Z,14.50
2022-11-03T10:23:44.288Z,14.70
2022-11-03T10:26:16.611Z,17.40
2022-11-03T10:29:05.631Z,18.40
2022-11-03T10:31:39.012Z,19.40
2022-11-03T10:34:27.499Z,19.00
2022-11-03T10:37:23.136Z,19.10
2022-11-03T10:39:52.822Z,19.10
2022-11-03T10:42:29.278Z,19.20
2022-11-03T10:45:31.871Z,20.10
2022-11-03T10:48:05.616Z,19.80
2022-11-03T10:50:33.295Z,20.70
2022-11-03T10:53:00.407Z,20.70
2022-11-03T10:55:28.324Z,21.00
2022-11-03T10:57:56.132Z,20.90
2022-11-03T11:00:25.431Z,19.70
2022-11-03T11:02:58.963Z,20.40
2022-11-03T11:05:26.470Z,19.80
2022-11-03T11:07:55.057Z,20.40
2022-11-03T11:10:27.710Z,20.40
2022-11-03T11:13:18.831Z,21.20
2022-11-03T11:15:48.645Z,20.10
2022-11-03T11:18:28.013Z,20.40
2022-11-03T11:21:19.329Z,20.70
2022-11-03T11:23:48.448Z,19.80
2022-11-03T11:26:34.166Z,20.00
2022-11-03T11:29:11.114Z,20.30
2022-11-03T11:31:57.003Z,20.50
2022-11-03T11:34:36.522Z,20.90
2022-11-03T11:37:06.584Z,21.00
2022-11-03T11:39:34.556Z,21.80
2022-11-03T11:42:13.943Z,20.90
2022-11-03T11:44:46.100Z,21.00
2022-11-03T11:47:22.195Z,21.00
2022-11-03T11:50:16.225Z,21.60
2022-11-03T11:52:58.908Z,20.50
2022-11-03T11:55:40.914Z,20.20
2022-11-03T11:58:43.963Z,20.10
2022-11-03T12:05:03.883Z,19.60
2022-11-03T12:07:36.325Z,17.00
2022-11-03T12:10:27.725Z,16.10
2022-11-03T12:13:33.383Z,16.10
2022-11-03T12:16:00.603Z,16.50
2022-11-03T12:18:47.717Z,17.00
2022-11-03T12:21:49.564Z,17.70
2022-11-03T12:24:32.732Z,16.60
2022-11-03T12:27:01.260Z,16.30
2022-11-03T12:29:28.320Z,16.20
2022-11-03T12:31:55.863Z,16.00
2022-11-03T12:34:22.998Z,15.80
2022-11-03T12:36:55.704Z,15.80
2022-11-03T12:39:23.240Z,15.70
2022-11-03T12:41:51.317Z,15.70
2022-11-03T12:44:20.402Z,15.80
2022-11-03T12:46:47.485Z,16.20
2022-11-03T12:49:14.601Z,16.00
2022-11-03T12:51:41.855Z,15.70
2022-11-03T12:54:09.005Z,15.80
2022-11-03T12:56:36.076Z,15.70
2022-11-03T12:59:03.089Z,15.70
2022-11-03T13:01:30.539Z,15.70
2022-11-03T13:03:57.797Z,15.80
2022-11-03T13:06:25.048Z,15.80
2022-11-03T13:08:53.493Z,15.80
2022-11-03T13:11:39.286Z,15.80
2022-11-03T13:14:06.468Z,15.70
2022-11-03T13:16:33.509Z,15.60
2022-11-03T13:19:00.652Z,15.70
2022-11-03T13:21:27.801Z,15.80
2022-11-03T13:23:56.454Z,15.80
2022-11-03T13:26:23.509Z,15.70
2022-11-03T13:28:50.643Z,15.70
2022-11-03T13:31:17.708Z,15.70
2022-11-03T13:33:46.018Z,15.70
2022-11-03T13:36:13.150Z,15.70
2022-11-03T13:38:40.469Z,15.60
2022-11-03T13:41:09.179Z,15.60
2022-11-03T13:43:36.793Z,15.50
2022-11-03T13:46:05.106Z,15.60
2022-11-03T13:51:21.538Z,15.60
2022-11-03T14:04:44.347Z,15.40
2022-11-03T14:07:11.836Z,15.40
2022-11-03T14:09:39.168Z,15.20
2022-11-03T14:12:25.165Z,15.40
2022-11-03T14:14:52.355Z,15.30
2022-11-03T14:17:19.530Z,15.30
2022-11-03T14:19:52.089Z,15.30
2022-11-03T14:22:21.881Z,15.20
2022-11-03T14:24:51.317Z,15.00
2022-11-03T14:27:20.087Z,14.90
2022-11-03T14:29:49.955Z,15.00
2022-11-03T14:32:18.317Z,15.00
2022-11-03T14:34:46.115Z,14.90
2022-11-03T14:37:14.119Z,14.90
2022-11-03T14:39:41.773Z,14.80
2022-11-03T14:42:17.259Z,14.80
2022-11-03T14:44:46.933Z,14.80
2022-11-03T14:47:18.104Z,14.80
2022-11-03T14:49:46.669Z,14.70
2022-11-03T14:52:15.160Z,14.60
2022-11-03T14:54:43.487Z,14.70
2022-11-03T14:57:10.591Z,14.70
2022-11-03T14:59:37.741Z,14.60
2022-11-03T15:02:06.346Z,14.50
2022-11-03T15:04:34.113Z,14.40
2022-11-03T15:07:01.397Z,14.30
2022-11-03T15:09:28.907Z,14.30
2022-11-03T15:11:56.106Z,14.20
2022-11-03T15:14:23.258Z,14.30
2022-11-03T15:16:50.472Z,14.00
2022-11-03T15:19:17.690Z,13.90
2022-11-03T15:21:44.808Z,13.80
2022-11-03T15:26:59.449Z,13.80
2022-11-03T15:29:26.627Z,13.70
2022-11-03T15:31:53.808Z,13.70
2022-11-03T15:34:20.847Z,13.60
2022-11-03T15:36:48.081Z,13.60
2022-11-03T15:39:16.147Z,13.60
2022-11-03T15:41:43.254Z,13.40
2022-11-03T15:44:10.442Z,13.40
2022-11-03T15:46:37.522Z,13.40
2022-11-03T15:49:04.841Z,13.50
2022-11-03T15:51:32.056Z,13.60
2022-11-03T15:53:59.548Z,13.60
2022-11-03T15:56:30.356Z,13.70
2022-11-03T15:58:57.509Z,13.70
2022-11-03T16:01:24.760Z,13.80
2022-11-03T16:03:53.336Z,13.70
2022-11-03T16:06:27.128Z,13.60
2022-11-03T16:09:08.289Z,13.70
2022-11-03T16:11:36.439Z,13.60
2022-11-03T16:14:03.547Z,13.50
2022-11-03T16:16:30.718Z,13.40
2022-11-03T16:18:57.809Z,13.30
2022-11-03T16:21:25.104Z,13.30
2022-11-03T16:23:52.224Z,13.10
2022-11-03T16:26:25.406Z,13.00
2022-11-03T16:28:53.593Z,12.90
2022-11-03T16:31:21.174Z,12.80
2022-11-03T16:33:48.819Z,12.60
2022-11-03T16:36:16.085Z,12.50
2022-11-03T16:38:43.355Z,12.40
2022-11-03T16:41:10.472Z,12.30
2022-11-03T16:43:38.727Z,12.10
2022-11-03T16:46:05.964Z,12.10
2022-11-03T16:48:33.117Z,12.00
2022-11-03T16:51:00.766Z,12.00
2022-11-03T16:53:28.626Z,11.90
2022-11-03T16:55:56.482Z,11.80
2022-11-03T16:58:23.686Z,11.90
2022-11-03T17:00:51.084Z,12.00
2022-11-03T17:03:19.227Z,12.10
2022-11-03T17:05:46.247Z,12.10
2022-11-03T17:08:46.384Z,12.10
2022-11-03T17:11:00.713Z,12.00
2022-11-03T17:13:29.893Z,12.00
2022-11-03T17:15:58.337Z,12.00
2022-11-03T17:18:25.499Z,12.00
2022-11-03T17:20:52.656Z,11.80
2022-11-03T17:23:19.867Z,11.90
2022-11-03T17:25:47.112Z,11.90
2022-11-03T17:28:15.021Z,11.80
2022-11-03T17:30:42.231Z,11.80
2022-11-03T17:33:15.711Z,11.90
2022-11-03T17:35:45.612Z,12.00
2022-11-03T17:38:17.822Z,12.10
2022-11-03T17:40:46.892Z,12.00
2022-11-03T17:43:27.419Z,12.00
2022-11-03T17:45:54.794Z,12.00
2022-11-03T17:48:25.122Z,12.10
2022-11-03T17:50:55.971Z,12.00
2022-11-03T17:53:42.932Z,12.00
2022-11-03T17:56:30.015Z,12.00
2022-11-03T17:58:58.405Z,11.90
2022-11-03T18:01:27.773Z,12.00
2022-11-03T18:03:55.105Z,12.00
2022-11-03T18:06:22.930Z,12.00
2022-11-03T18:08:58.892Z,11.90
2022-11-03T18:11:50.786Z,11.90
2022-11-03T18:14:19.845Z,11.90
2022-11-03T18:16:48.124Z,11.90
2022-11-03T18:19:17.135Z,11.80
2022-11-03T18:21:44.936Z,11.80
2022-11-03T18:24:14.855Z,11.80
2022-11-03T18:26:42.531Z,11.70
2022-11-03T18:29:10.689Z,11.70
2022-11-03T18:31:47.560Z,11.70
2022-11-03T18:34:21.265Z,11.60
2022-11-03T18:36:49.256Z,11.60
2022-11-03T18:39:26.721Z,11.60
2022-11-03T18:41:55.241Z,11.50
2022-11-03T18:44:24.351Z,11.50
2022-11-03T18:46:52.881Z,11.50
2022-11-03T18:49:20.076Z,11.40
2022-11-03T18:52:02.504Z,11.50
2022-11-03T18:54:32.784Z,11.50
2022-11-03T18:57:00.309Z,11.40
2022-11-03T18:59:32.029Z,11.40
2022-11-03T19:02:00.026Z,11.40
2022-11-03T19:04:28.319Z,11.30
2022-11-03T19:06:57.315Z,11.30
2022-11-03T19:09:26.824Z,11.20
2022-11-03T19:11:57.696Z,11.10
2022-11-03T19:14:35.980Z,11.10
2022-11-03T19:17:22.399Z,11.00
2022-11-03T19:19:51.716Z,10.90
2022-11-03T19:22:22.237Z,10.80
2022-11-03T19:24:49.643Z,10.80
2022-11-03T19:27:26.533Z,10.70
2022-11-03T19:29:57.288Z,10.70
2022-11-03T19:32:29.515Z,10.60
2022-11-03T19:35:04.642Z,10.50
2022-11-03T19:37:35.789Z,10.50
2022-11-03T19:40:09.389Z,10.60
2022-11-03T19:42:37.112Z,10.60
2022-11-03T19:45:07.692Z,10.60
2022-11-03T19:48:22.675Z,10.50
2022-11-03T19:50:37.225Z,10.40
2022-11-03T19:53:06.969Z,10.30
2022-11-03T19:55:40.490Z,10.30
2022-11-03T19:58:23.122Z,10.30
2022-11-03T20:00:51.262Z,10.30
2022-11-03T20:03:18.502Z,10.30
2022-11-03T20:05:49.619Z,10.30
2022-11-03T20:08:21.239Z,10.30
2022-11-03T20:10:49.379Z,10.30
2022-11-03T20:13:22.054Z,10.30
2022-11-03T20:15:49.620Z,10.20
2022-11-03T20:18:18.440Z,10.20
2022-11-03T20:20:48.325Z,10.20
2022-11-03T20:23:34.432Z,10.10
2022-11-03T20:26:04.230Z,10.20
2022-11-03T20:28:35.899Z,10.10
2022-11-03T20:31:04.204Z,10.20
2022-11-03T20:33:31.536Z,10.20
2022-11-03T20:35:59.623Z,10.20
2022-11-03T20:38:29.974Z,10.20
2022-11-03T20:41:01.460Z,10.20
2022-11-03T20:43:42.234Z,10.20
2022-11-03T20:46:26.641Z,10.20
2022-11-03T20:48:57.938Z,10.30
2022-11-03T20:51:32.893Z,10.20
2022-11-03T20:54:01.796Z,10.20
2022-11-03T20:56:30.017Z,10.30
2022-11-03T20:58:58.363Z,10.30
2022-11-03T21:01:33.443Z,10.30
2022-11-03T21:04:02.775Z,10.30
2022-11-03T21:06:31.784Z,10.30
2022-11-03T21:08:59.593Z,10.30
2022-11-03T21:11:30.012Z,10.30
2022-11-03T21:14:00.512Z,10.30
2022-11-03T21:16:48.620Z,10.30
2022-11-03T21:19:35.662Z,10.40
2022-11-03T21:22:03.547Z,10.40
2022-11-03T21:24:30.642Z,10.30
2022-11-03T21:26:57.879Z,10.30
2022-11-03T21:29:46.023Z,10.40
2022-11-03T21:32:14.492Z,10.40
2022-11-03T21:34:42.854Z,10.40
2022-11-03T21:37:16.567Z,10.30
2022-11-03T21:39:44.405Z,10.30
2022-11-03T21:42:31.533Z,10.20
2022-11-03T21:44:59.352Z,10.30
2022-11-03T21:47:26.930Z,10.30
2022-11-03T21:49:54.228Z,10.20
2022-11-03T21:52:32.202Z,10.30
2022-11-03T21:55:01.147Z,10.20
2022-11-03T21:57:29.193Z,10.20
2022-11-03T21:59:59.547Z,10.20
2022-11-03T22:02:30.149Z,10.20
2022-11-03T22:04:58.163Z,10.20
2022-11-03T22:07:25.501Z,10.20
2022-11-03T22:09:52.734Z,10.30
2022-11-03T22:12:19.884Z,10.30
2022-11-03T22:15:05.320Z,10.20
2022-11-03T22:17:32.556Z,10.20
2022-11-03T22:20:18.162Z,10.20
2022-11-03T22:23:03.812Z,10.20
2022-11-03T22:25:49.326Z,10.20
2022-11-03T22:28:16.661Z,10.10
2022-11-03T22:31:16.642Z,10.10
2022-11-03T22:34:02.652Z,10.10
2022-11-03T22:36:29.823Z,10.10
2022-11-03T22:39:15.502Z,10.10
2022-11-03T22:42:06.146Z,10.10
2022-11-03T22:44:52.687Z,10.00
2022-11-03T22:47:20.032Z,10.10
2022-11-03T22:49:47.117Z,10.10
2022-11-03T22:52:14.353Z,10.00
2022-11-03T22:54:41.483Z,10.00
2022-11-03T22:57:11.520Z,9.90
2022-11-03T22:59:38.717Z,9.90
2022-11-03T23:02:05.894Z,10.00
2022-11-03T23:04:33.209Z,10.00
2022-11-03T23:07:00.365Z,10.00
2022-11-03T23:09:27.597Z,10.00
2022-11-03T23:11:54.622Z,10.00
2022-11-03T23:14:23.148Z,10.10
2022-11-03T23:16:50.277Z,10.10
2022-11-03T23:19:35.958Z,10.10
2022-11-03T23:22:03.091Z,10.10
2022-11-03T23:24:48.698Z,10.10
2022-11-03T23:27:16.334Z,10.10
2022-11-03T23:29:43.447Z,10.10
2022-11-03T23:32:10.545Z,10.10
2022-11-03T23:34:37.579Z,10.10
2022-11-03T23:37:04.875Z,10.20
2022-11-03T23:39:32.023Z,10.20
2022-11-03T23:41:59.207Z,10.20
2022-11-03T23:44:46.420Z,10.20
2022-11-03T23:47:32.151Z,10.20
2022-11-03T23:49:59.407Z,10.20
2022-11-03T23:52:26.703Z,10.20
2022-11-03T23:54:53.858Z,10.30
2022-11-03T23:57:39.477Z,10.30
